sensor_id;sensor_type;location;lat;lon;timestamp;pressure;altitude;pressure_sealevel;temperature;humidity
50790;BME280;37287;47.554;7.844;2023-02-19T00:01:45;98702.25;;;10.41;90.59
50790;BME280;37287;47.554;7.844;2023-02-19T00:04:13;98702.16;;;10.37;90.51
50790;BME280;37287;47.554;7.844;2023-02-19T00:06:40;98707.81;;;10.32;91.77
50790;BME280;37287;47.554;7.844;2023-02-19T00:09:09;98715.84;;;10.28;92.82
50790;BME280;37287;47.554;7.844;2023-02-19T00:11:37;98707.66;;;10.25;93.08
50790;BME280;37287;47.554;7.844;2023-02-19T00:14:04;98709.94;;;10.23;93.13
50790;BME280;37287;47.554;7.844;2023-02-19T00:16:36;98714.06;;;10.17;93.73
50790;BME280;37287;47.554;7.844;2023-02-19T00:19:07;98708.91;;;10.11;93.90
50790;BME280;37287;47.554;7.844;2023-02-19T00:21:34;98705.34;;;10.07;94.59
50790;BME280;37287;47.554;7.844;2023-02-19T00:24:06;98713.81;;;10.06;94.98
50790;BME280;37287;47.554;7.844;2023-02-19T00:26:33;98703.69;;;10.03;94.74
50790;BME280;37287;47.554;7.844;2023-02-19T00:29:00;98705.53;;;9.98;95.62
50790;BME280;37287;47.554;7.844;2023-02-19T00:31:34;98701.94;;;9.94;95.72
50790;BME280;37287;47.554;7.844;2023-02-19T00:34:03;98702.66;;;9.91;95.89
50790;BME280;37287;47.554;7.844;2023-02-19T00:36:36;98698.72;;;9.89;96.22
50790;BME280;37287;47.554;7.844;2023-02-19T00:39:03;98697.16;;;9.88;96.75
50790;BME280;37287;47.554;7.844;2023-02-19T00:41:31;98695.91;;;9.85;96.95
50790;BME280;37287;47.554;7.844;2023-02-19T00:49:03;98703.78;;;9.74;97.70
50790;BME280;37287;47.554;7.844;2023-02-19T00:51:33;98693.66;;;9.71;97.42
50790;BME280;37287;47.554;7.844;2023-02-19T00:54:00;98688.88;;;9.64;97.83
50790;BME280;37287;47.554;7.844;2023-02-19T00:56:26;98704.31;;;9.64;98.36
50790;BME280;37287;47.554;7.844;2023-02-19T00:58:55;98710.34;;;9.57;98.25
50790;BME280;37287;47.554;7.844;2023-02-19T01:01:23;98706.06;;;9.56;98.34
50790;BME280;37287;47.554;7.844;2023-02-19T01:03:52;98704.06;;;9.53;98.70
50790;BME280;37287;47.554;7.844;2023-02-19T01:06:20;98707.47;;;9.50;99.21
50790;BME280;37287;47.554;7.844;2023-02-19T01:08:47;98704.66;;;9.46;99.23
50790;BME280;37287;47.554;7.844;2023-02-19T01:11:15;98696.78;;;9.41;99.48
50790;BME280;37287;47.554;7.844;2023-02-19T01:13:42;98697.47;;;9.38;99.44
50790;BME280;37287;47.554;7.844;2023-02-19T01:16:18;98712.03;;;9.34;99.46
50790;BME280;37287;47.554;7.844;2023-02-19T01:18:47;98706.53;;;9.30;99.94
50790;BME280;37287;47.554;7.844;2023-02-19T01:21:20;98711.50;;;9.28;100.00
50790;BME280;37287;47.554;7.844;2023-02-19T01:23:49;98714.47;;;9.23;100.00
50790;BME280;37287;47.554;7.844;2023-02-19T01:26:20;98715.25;;;9.23;100.00
50790;BME280;37287;47.554;7.844;2023-02-19T01:28:47;98708.81;;;9.28;100.00
50790;BME280;37287;47.554;7.844;2023-02-19T01:31:19;98703.41;;;9.28;100.00
50790;BME280;37287;47.554;7.844;2023-02-19T01:33:56;98707.22;;;9.27;100.00
50790;BME280;37287;47.554;7.844;2023-02-19T01:36:23;98694.41;;;9.24;100.00
50790;BME280;37287;47.554;7.844;2023-02-19T01:38:58;98688.59;;;9.22;99.95
50790;BME280;37287;47.554;7.844;2023-02-19T01:41:34;98686.22;;;9.20;100.00
50790;BME280;37287;47.554;7.844;2023-02-19T01:46:31;98675.22;;;9.13;100.00
50790;BME280;37287;47.554;7.844;2023-02-19T01:49:03;98684.47;;;9.12;100.00
50790;BME280;37287;47.554;7.844;2023-02-19T01:51:35;98683.66;;;9.11;100.00
50790;BME280;37287;47.554;7.844;2023-02-19T01:54:10;98676.72;;;9.10;100.00
50790;BME280;37287;47.554;7.844;2023-02-19T01:56:41;98679.72;;;9.09;100.00
50790;BME280;37287;47.554;7.844;2023-02-19T01:59:09;98676.59;;;9.07;100.00
50790;BME280;37287;47.554;7.844;2023-02-19T02:01:37;98675.03;;;9.06;100.00
50790;BME280;37287;47.554;7.844;2023-02-19T02:04:08;98674.25;;;9.05;100.00
50790;BME280;37287;47.554;7.844;2023-02-19T02:07:03;98663.78;;;9.04;100.00
50790;BME280;37287;47.554;7.844;2023-02-19T02:09:51;98650.66;;;9.02;100.00
50790;BME280;37287;47.554;7.844;2023-02-19T02:12:36;98656.72;;;8.99;100.00
50790;BME280;37287;47.554;7.844;2023-02-19T02:15:03;98657.06;;;8.98;100.00
50790;BME280;37287;47.554;7.844;2023-02-19T02:17:41;98648.88;;;8.94;99.60
50790;BME280;37287;47.554;7.844;2023-02-19T02:20:32;98641.47;;;8.91;100.00
50790;BME280;37287;47.554;7.844;2023-02-19T02:31:11;98642.50;;;8.86;100.00
50790;BME280;37287;47.554;7.844;2023-02-19T02:33:45;98634.72;;;8.85;100.00
50790;BME280;37287;47.554;7.844;2023-02-19T02:36:32;98628.22;;;8.86;100.00
50790;BME280;37287;47.554;7.844;2023-02-19T02:39:02;98624.38;;;8.87;100.00
50790;BME280;37287;47.554;7.844;2023-02-19T02:41:34;98637.88;;;8.87;100.00
50790;BME280;37287;47.554;7.844;2023-02-19T02:44:06;98646.00;;;8.87;100.00
50790;BME280;37287;47.554;7.844;2023-02-19T02:46:34;98644.41;;;8.86;100.00
50790;BME280;37287;47.554;7.844;2023-02-19T02:49:04;98640.13;;;8.85;100.00
50790;BME280;37287;47.554;7.844;2023-02-19T02:51:40;98644.41;;;8.86;100.00
50790;BME280;37287;47.554;7.844;2023-02-19T02:54:13;98656.00;;;8.86;100.00
50790;BME280;37287;47.554;7.844;2023-02-19T02:57:00;98664.44;;;8.85;100.00
50790;BME280;37287;47.554;7.844;2023-02-19T02:59:32;98656.78;;;8.87;100.00
50790;BME280;37287;47.554;7.844;2023-02-19T03:02:04;98644.41;;;8.86;100.00
50790;BME280;37287;47.554;7.844;2023-02-19T03:05:16;98652.94;;;8.88;100.00
50790;BME280;37287;47.554;7.844;2023-02-19T03:10:56;98638.31;;;8.89;100.00
50790;BME280;37287;47.554;7.844;2023-02-19T03:13:31;98644.06;;;8.87;100.00
50790;BME280;37287;47.554;7.844;2023-02-19T03:16:25;98642.84;;;8.85;100.00
50790;BME280;37287;47.554;7.844;2023-02-19T03:19:14;98641.72;;;8.86;100.00
50790;BME280;37287;47.554;7.844;2023-02-19T03:22:06;98650.59;;;8.86;99.93
50790;BME280;37287;47.554;7.844;2023-02-19T03:24:46;98658.34;;;8.88;99.95
50790;BME280;37287;47.554;7.844;2023-02-19T03:27:35;98667.59;;;8.87;100.00
50790;BME280;37287;47.554;7.844;2023-02-19T03:30:08;98675.22;;;8.85;99.89
50790;BME280;37287;47.554;7.844;2023-02-19T03:32:53;98673.69;;;8.84;99.92
50790;BME280;37287;47.554;7.844;2023-02-19T03:35:26;98674.47;;;8.84;99.92
50790;BME280;37287;47.554;7.844;2023-02-19T03:40:57;98651.63;;;8.82;99.91
50790;BME280;37287;47.554;7.844;2023-02-19T03:43:53;98655.91;;;8.83;99.29
50790;BME280;37287;47.554;7.844;2023-02-19T03:46:38;98641.94;;;8.81;99.04
50790;BME280;37287;47.554;7.844;2023-02-19T03:49:15;98645.34;;;8.77;99.05
50790;BME280;37287;47.554;7.844;2023-02-19T03:52:00;98636.81;;;8.75;99.27
50790;BME280;37287;47.554;7.844;2023-02-19T04:00:15;98644.25;;;8.66;99.45
50790;BME280;37287;47.554;7.844;2023-02-19T04:05:34;98636.09;;;8.63;99.55
50790;BME280;37287;47.554;7.844;2023-02-19T04:08:10;98647.66;;;8.63;99.54
50790;BME280;37287;47.554;7.844;2023-02-19T04:10:40;98636.84;;;8.63;99.42
50790;BME280;37287;47.554;7.844;2023-02-19T04:13:14;98638.44;;;8.64;99.80
50790;BME280;37287;47.554;7.844;2023-02-19T04:15:46;98648.44;;;8.64;99.46
50790;BME280;37287;47.554;7.844;2023-02-19T04:18:17;98646.88;;;8.63;100.00
50790;BME280;37287;47.554;7.844;2023-02-19T04:20:46;98646.78;;;8.59;100.00
50790;BME280;37287;47.554;7.844;2023-02-19T04:23:19;98639.25;;;8.52;100.00
50790;BME280;37287;47.554;7.844;2023-02-19T04:25:56;98639.59;;;8.51;100.00
50790;BME280;37287;47.554;7.844;2023-02-19T04:28:24;98630.38;;;8.52;100.00
50790;BME280;37287;47.554;7.844;2023-02-19T04:30:53;98637.34;;;8.53;100.00
50790;BME280;37287;47.554;7.844;2023-02-19T04:33:19;98645.00;;;8.51;100.00
50790;BME280;37287;47.554;7.844;2023-02-19T04:35:46;98641.53;;;8.50;100.00
50790;BME280;37287;47.554;7.844;2023-02-19T04:38:13;98636.47;;;8.49;100.00
50790;BME280;37287;47.554;7.844;2023-02-19T04:40:40;98636.47;;;8.49;100.00
50790;BME280;37287;47.554;7.844;2023-02-19T04:43:06;98633.75;;;8.49;100.00
50790;BME280;37287;47.554;7.844;2023-02-19T04:45:37;98639.94;;;8.49;100.00
50790;BME280;37287;47.554;7.844;2023-02-19T04:48:04;98645.78;;;8.51;100.00
50790;BME280;37287;47.554;7.844;2023-02-19T04:50:31;98644.22;;;8.50;100.00
50790;BME280;37287;47.554;7.844;2023-02-19T04:53:04;98650.38;;;8.51;100.00
50790;BME280;37287;47.554;7.844;2023-02-19T04:55:31;98648.84;;;8.50;100.00
50790;BME280;37287;47.554;7.844;2023-02-19T04:57:59;98637.25;;;8.49;100.00
50790;BME280;37287;47.554;7.844;2023-02-19T05:00:25;98645.34;;;8.49;100.00
50790;BME280;37287;47.554;7.844;2023-02-19T05:02:52;98642.63;;;8.49;100.00
50790;BME280;37287;47.554;7.844;2023-02-19T05:05:18;98642.63;;;8.49;100.00
50790;BME280;37287;47.554;7.844;2023-02-19T05:07:47;98637.25;;;8.49;100.00
50790;BME280;37287;47.554;7.844;2023-02-19T05:10:14;98635.34;;;8.50;100.00
50790;BME280;37287;47.554;7.844;2023-02-19T05:12:42;98639.94;;;8.49;100.00
50790;BME280;37287;47.554;7.844;2023-02-19T05:15:20;98633.31;;;8.47;100.00
50790;BME280;37287;47.554;7.844;2023-02-19T05:17:47;98646.69;;;8.43;100.00
50790;BME280;37287;47.554;7.844;2023-02-19T05:20:13;98647.03;;;8.41;100.00
50790;BME280;37287;47.554;7.844;2023-02-19T05:22:40;98637.69;;;8.39;100.00
50790;BME280;37287;47.554;7.844;2023-02-19T05:25:07;98641.97;;;8.40;100.00
50790;BME280;37287;47.554;7.844;2023-02-19T05:27:33;98646.22;;;8.41;100.00
50790;BME280;37287;47.554;7.844;2023-02-19T05:30:00;98644.34;;;8.41;100.00
50790;BME280;37287;47.554;7.844;2023-02-19T05:32:27;98652.44;;;8.41;100.00
50790;BME280;37287;47.554;7.844;2023-02-19T05:34:53;98662.06;;;8.42;100.00
50790;BME280;37287;47.554;7.844;2023-02-19T05:37:20;98666.34;;;8.43;100.00
50790;BME280;37287;47.554;7.844;2023-02-19T05:39:47;98657.47;;;8.43;100.00
50790;BME280;37287;47.554;7.844;2023-02-19T05:42:14;98673.22;;;8.41;100.00
50790;BME280;37287;47.554;7.844;2023-02-19T05:44:43;98672.44;;;8.40;100.00
50790;BME280;37287;47.554;7.844;2023-02-19T05:47:09;98668.63;;;8.41;100.00
50790;BME280;37287;47.554;7.844;2023-02-19T05:49:36;98676.72;;;8.41;100.00
50790;BME280;37287;47.554;7.844;2023-02-19T05:52:04;98689.53;;;8.45;100.00
50790;BME280;37287;47.554;7.844;2023-02-19T05:54:31;98694.94;;;8.45;100.00
50790;BME280;37287;47.554;7.844;2023-02-19T05:56:57;98694.94;;;8.45;100.00
50790;BME280;37287;47.554;7.844;2023-02-19T05:59:26;98699.53;;;8.44;100.00
50790;BME280;37287;47.554;7.844;2023-02-19T06:01:54;98703.47;;;8.47;100.00
50790;BME280;37287;47.554;7.844;2023-02-19T06:04:20;98702.81;;;8.50;100.00
50790;BME280;37287;47.554;7.844;2023-02-19T06:06:48;98700.53;;;8.52;100.00
50790;BME280;37287;47.554;7.844;2023-02-19T06:09:17;98707.97;;;8.55;100.00
50790;BME280;37287;47.554;7.844;2023-02-19T06:11:43;98701.78;;;8.54;100.00
50790;BME280;37287;47.554;7.844;2023-02-19T06:14:12;98712.22;;;8.56;100.00
50790;BME280;37287;47.554;7.844;2023-02-19T06:16:39;98705.25;;;8.55;100.00
50790;BME280;37287;47.554;7.844;2023-02-19T06:19:08;98709.06;;;8.54;100.00
50790;BME280;37287;47.554;7.844;2023-02-19T06:21:34;98712.22;;;8.56;100.00
50790;BME280;37287;47.554;7.844;2023-02-19T06:24:05;98716.50;;;8.57;100.00
50790;BME280;37287;47.554;7.844;2023-02-19T06:26:32;98718.41;;;8.56;100.00
50790;BME280;37287;47.554;7.844;2023-02-19T06:28:59;98716.50;;;8.57;100.00
50790;BME280;37287;47.554;7.844;2023-02-19T06:31:28;98717.28;;;8.57;100.00
50790;BME280;37287;47.554;7.844;2023-02-19T06:33:55;98716.50;;;8.57;100.00
50790;BME280;37287;47.554;7.844;2023-02-19T06:36:23;98721.09;;;8.56;100.00
50790;BME280;37287;47.554;7.844;2023-02-19T06:38:50;98723.72;;;8.53;100.00
50790;BME280;37287;47.554;7.844;2023-02-19T06:41:17;98724.84;;;8.52;100.00
50790;BME280;37287;47.554;7.844;2023-02-19T06:43:46;98729.13;;;8.53;100.00
50790;BME280;37287;47.554;7.844;2023-02-19T06:46:12;98729.13;;;8.53;100.00
50790;BME280;37287;47.554;7.844;2023-02-19T06:48:41;98738.00;;;8.53;100.00
50790;BME280;37287;47.554;7.844;2023-02-19T06:51:12;98737.22;;;8.53;100.00
50790;BME280;37287;47.554;7.844;2023-02-19T06:53:39;98743.72;;;8.52;100.00
50790;BME280;37287;47.554;7.844;2023-02-19T06:56:20;98748.00;;;8.53;100.00
50790;BME280;37287;47.554;7.844;2023-02-19T06:58:48;98755.22;;;8.49;100.00
50790;BME280;37287;47.554;7.844;2023-02-19T07:01:15;98766.00;;;8.49;100.00
50790;BME280;37287;47.554;7.844;2023-02-19T07:03:41;98762.06;;;8.46;100.00
50790;BME280;37287;47.554;7.844;2023-02-19T07:06:08;98760.78;;;8.43;100.00
50790;BME280;37287;47.554;7.844;2023-02-19T07:08:35;98774.19;;;8.40;100.00
50790;BME280;37287;47.554;7.844;2023-02-19T07:11:01;98775.19;;;8.35;100.00
50790;BME280;37287;47.554;7.844;2023-02-19T07:13:28;98778.56;;;8.32;100.00
50790;BME280;37287;47.554;7.844;2023-02-19T07:16:00;98786.22;;;8.30;100.00
50790;BME280;37287;47.554;7.844;2023-02-19T07:18:28;98789.56;;;8.27;100.00
50790;BME280;37287;47.554;7.844;2023-02-19T07:21:05;98794.41;;;8.21;100.00
50790;BME280;37287;47.554;7.844;2023-02-19T07:23:36;98794.31;;;8.18;100.00
50790;BME280;37287;47.554;7.844;2023-02-19T07:26:03;98792.72;;;8.17;100.00
50790;BME280;37287;47.554;7.844;2023-02-19T07:28:30;98813.53;;;8.16;100.00
50790;BME280;37287;47.554;7.844;2023-02-19T07:31:01;98808.81;;;8.13;100.00
50790;BME280;37287;47.554;7.844;2023-02-19T07:33:28;98815.75;;;8.14;100.00
50790;BME280;37287;47.554;7.844;2023-02-19T07:35:54;98821.97;;;8.15;100.00
50790;BME280;37287;47.554;7.844;2023-02-19T07:38:24;98819.25;;;8.15;100.00
50790;BME280;37287;47.554;7.844;2023-02-19T07:40:54;98825.00;;;8.13;100.00
50790;BME280;37287;47.554;7.844;2023-02-19T07:43:23;98833.44;;;8.12;100.00
50790;BME280;37287;47.554;7.844;2023-02-19T07:45:50;98839.94;;;8.11;100.00
50790;BME280;37287;47.554;7.844;2023-02-19T07:48:19;98843.41;;;8.11;100.00
50790;BME280;37287;47.554;7.844;2023-02-19T07:50:57;98845.78;;;8.13;100.00
50790;BME280;37287;47.554;7.844;2023-02-19T07:53:26;98848.59;;;8.16;100.00
50790;BME280;37287;47.554;7.844;2023-02-19T07:55:53;98848.25;;;8.18;100.00
50790;BME280;37287;47.554;7.844;2023-02-19T07:58:19;98846.25;;;8.15;100.00
50790;BME280;37287;47.554;7.844;2023-02-19T08:00:48;98855.56;;;8.17;100.00
50790;BME280;37287;47.554;7.844;2023-02-19T08:03:15;98855.56;;;8.17;100.00
50790;BME280;37287;47.554;7.844;2023-02-19T08:05:42;98872.19;;;8.19;100.00
50790;BME280;37287;47.554;7.844;2023-02-19T08:08:12;98881.06;;;8.20;100.00
50790;BME280;37287;47.554;7.844;2023-02-19T08:10:40;98871.41;;;8.19;100.00
50790;BME280;37287;47.554;7.844;2023-02-19T08:13:27;98868.38;;;8.20;100.00
50790;BME280;37287;47.554;7.844;2023-02-19T08:18:41;98878.28;;;8.16;100.00
50790;BME280;37287;47.554;7.844;2023-02-19T08:21:08;98877.47;;;8.16;100.00
50790;BME280;37287;47.554;7.844;2023-02-19T08:23:36;98879.84;;;8.17;100.00
50790;BME280;37287;47.554;7.844;2023-02-19T08:26:02;98884.00;;;8.15;100.00
50790;BME280;37287;47.554;7.844;2023-02-19T08:28:30;98888.94;;;8.13;100.00
50790;BME280;37287;47.554;7.844;2023-02-19T08:31:01;98892.75;;;8.12;100.00
50790;BME280;37287;47.554;7.844;2023-02-19T08:33:30;98888.25;;;8.16;100.00
50790;BME280;37287;47.554;7.844;2023-02-19T08:36:06;98890.66;;;8.17;100.00
50790;BME280;37287;47.554;7.844;2023-02-19T08:38:34;98874.56;;;8.21;100.00
50790;BME280;37287;47.554;7.844;2023-02-19T08:41:06;98882.56;;;8.30;100.00
50790;BME280;37287;47.554;7.844;2023-02-19T08:43:34;98889.31;;;8.36;100.00
50790;BME280;37287;47.554;7.844;2023-02-19T08:46:03;98884.69;;;8.36;100.00
50790;BME280;37287;47.554;7.844;2023-02-19T08:48:41;98890.00;;;8.33;100.00
50790;BME280;37287;47.554;7.844;2023-02-19T08:51:09;98890.31;;;8.31;100.00
50790;BME280;37287;47.554;7.844;2023-02-19T08:53:37;98893.47;;;8.33;100.00
50790;BME280;37287;47.554;7.844;2023-02-19T08:56:09;98888.19;;;8.37;100.00
50790;BME280;37287;47.554;7.844;2023-02-19T08:58:38;98887.63;;;8.43;100.00
50790;BME280;37287;47.554;7.844;2023-02-19T09:01:13;98885.75;;;8.56;100.00
50790;BME280;37287;47.554;7.844;2023-02-19T09:03:42;98897.03;;;8.58;100.00
50790;BME280;37287;47.554;7.844;2023-02-19T09:06:16;98903.19;;;8.71;100.00
50790;BME280;37287;47.554;7.844;2023-02-19T09:08:43;98905.34;;;8.78;100.00
50790;BME280;37287;47.554;7.844;2023-02-19T09:11:10;98908.84;;;8.91;100.00
50790;BME280;37287;47.554;7.844;2023-02-19T09:13:37;98904.09;;;8.88;100.00
50790;BME280;37287;47.554;7.844;2023-02-19T09:16:04;98905.31;;;8.90;100.00
50790;BME280;37287;47.554;7.844;2023-02-19T09:18:31;98911.84;;;9.02;100.00
50790;BME280;37287;47.554;7.844;2023-02-19T09:21:03;98909.34;;;9.09;100.00
50790;BME280;37287;47.554;7.844;2023-02-19T09:23:34;98905.31;;;9.15;100.00
50790;BME280;37287;47.554;7.844;2023-02-19T09:26:02;98914.66;;;9.05;100.00
50790;BME280;37287;47.554;7.844;2023-02-19T09:28:32;98920.06;;;9.18;100.00
50790;BME280;37287;47.554;7.844;2023-02-19T09:31:05;98928.50;;;9.16;100.00
50790;BME280;37287;47.554;7.844;2023-02-19T09:33:45;98924.97;;;9.28;100.00
50790;BME280;37287;47.554;7.844;2023-02-19T09:36:16;98925.41;;;9.42;100.00
50790;BME280;37287;47.554;7.844;2023-02-19T09:38:44;98929.44;;;9.49;100.00
50790;BME280;37287;47.554;7.844;2023-02-19T09:41:28;98939.66;;;9.55;100.00
50790;BME280;37287;47.554;7.844;2023-02-19T09:43:59;98930.44;;;9.56;100.00
50790;BME280;37287;47.554;7.844;2023-02-19T09:46:44;98936.72;;;9.73;99.60
50790;BME280;37287;47.554;7.844;2023-02-19T09:49:18;98932.06;;;9.73;97.69
50790;BME280;37287;47.554;7.844;2023-02-19T09:51:51;98940.16;;;9.86;96.82
50790;BME280;37287;47.554;7.844;2023-02-19T09:54:28;98929.56;;;9.80;95.31
50790;BME280;37287;47.554;7.844;2023-02-19T09:57:00;98934.94;;;9.93;94.51
50790;BME280;37287;47.554;7.844;2023-02-19T09:59:31;98942.84;;;9.86;94.44
50790;BME280;37287;47.554;7.844;2023-02-19T10:04:43;98938.91;;;10.11;93.81
50790;BME280;37287;47.554;7.844;2023-02-19T10:12:46;98925.44;;;10.15;90.62
50790;BME280;37287;47.554;7.844;2023-02-19T10:15:21;98929.72;;;10.44;89.93
50790;BME280;37287;47.554;7.844;2023-02-19T10:17:53;98929.09;;;10.67;87.89
50790;BME280;37287;47.554;7.844;2023-02-19T10:20:21;98918.53;;;10.46;86.97
50790;BME280;37287;47.554;7.844;2023-02-19T10:23:01;98921.31;;;10.33;87.58
50790;BME280;37287;47.554;7.844;2023-02-19T10:25:32;98919.59;;;10.13;87.34
50790;BME280;37287;47.554;7.844;2023-02-19T10:27:59;98921.97;;;10.14;89.36
50790;BME280;37287;47.554;7.844;2023-02-19T10:30:31;98933.31;;;10.04;89.91
50790;BME280;37287;47.554;7.844;2023-02-19T10:33:13;98925.44;;;9.99;91.15
50790;BME280;37287;47.554;7.844;2023-02-19T10:36:04;98927.88;;;10.04;92.04
50790;BME280;37287;47.554;7.844;2023-02-19T10:38:37;98924.69;;;9.86;92.41
50790;BME280;37287;47.554;7.844;2023-02-19T10:41:07;98920.41;;;9.85;93.50
50790;BME280;37287;47.554;7.844;2023-02-19T10:43:42;98911.88;;;9.83;94.51
50790;BME280;37287;47.554;7.844;2023-02-19T10:46:22;98923.56;;;9.87;93.98
50790;BME280;37287;47.554;7.844;2023-02-19T10:48:57;98929.94;;;9.95;93.32
50790;BME280;37287;47.554;7.844;2023-02-19T10:51:34;98928.41;;;9.94;90.14
50790;BME280;37287;47.554;7.844;2023-02-19T10:54:19;98933.19;;;10.01;88.02
50790;BME280;37287;47.554;7.844;2023-02-19T10:56:50;98934.25;;;10.12;87.40
50790;BME280;37287;47.554;7.844;2023-02-19T11:01:57;98934.44;;;10.19;86.22
50790;BME280;37287;47.554;7.844;2023-02-19T11:04:25;98940.75;;;10.23;85.98
50790;BME280;37287;47.554;7.844;2023-02-19T11:06:52;98940.84;;;10.27;87.49
50790;BME280;37287;47.554;7.844;2023-02-19T11:09:29;98944.88;;;10.33;86.56
50790;BME280;37287;47.554;7.844;2023-02-19T11:11:58;98931.34;;;10.33;86.47
50790;BME280;37287;47.554;7.844;2023-02-19T11:14:26;98939.28;;;10.26;83.99
50790;BME280;37287;47.554;7.844;2023-02-19T11:16:56;98932.38;;;10.28;84.14
50790;BME280;37287;47.554;7.844;2023-02-19T11:19:33;98924.03;;;10.33;83.89
50790;BME280;37287;47.554;7.844;2023-02-19T11:22:38;98916.00;;;10.37;83.22
50790;BME280;37287;47.554;7.844;2023-02-19T11:28:02;98915.56;;;10.35;82.64
50790;BME280;37287;47.554;7.844;2023-02-19T11:30:38;98913.41;;;10.41;83.31
50790;BME280;37287;47.554;7.844;2023-02-19T11:36:23;98913.69;;;10.23;83.51
50790;BME280;37287;47.554;7.844;2023-02-19T11:38:55;98930.63;;;10.20;83.72
50790;BME280;37287;47.554;7.844;2023-02-19T11:41:44;98928.16;;;10.15;84.03
50790;BME280;37287;47.554;7.844;2023-02-19T11:44:21;98933.03;;;10.09;83.74
50790;BME280;37287;47.554;7.844;2023-02-19T11:54:51;98937.63;;;9.93;87.49
50790;BME280;37287;47.554;7.844;2023-02-19T12:00:13;98938.81;;;9.79;90.33
50790;BME280;37287;47.554;7.844;2023-02-19T12:08:27;98931.06;;;9.66;90.41
50790;BME280;37287;47.554;7.844;2023-02-19T12:14:07;98918.84;;;9.56;90.99
50790;BME280;37287;47.554;7.844;2023-02-19T12:16:49;98919.72;;;9.60;90.80
50790;BME280;37287;47.554;7.844;2023-02-19T12:22:32;98915.34;;;9.84;89.87
50790;BME280;37287;47.554;7.844;2023-02-19T12:25:24;98915.00;;;9.85;89.19
50790;BME280;37287;47.554;7.844;2023-02-19T12:38:52;98903.56;;;10.20;85.64
50790;BME280;37287;47.554;7.844;2023-02-19T12:41:48;98902.25;;;10.30;85.39
50790;BME280;37287;47.554;7.844;2023-02-19T12:44:23;98906.78;;;10.26;83.96
50790;BME280;37287;47.554;7.844;2023-02-19T12:46:59;98911.25;;;10.18;84.01
50790;BME280;37287;47.554;7.844;2023-02-19T12:52:00;98912.28;;;10.13;84.64
50790;BME280;37287;47.554;7.844;2023-02-19T12:54:34;98909.19;;;9.99;84.03
50790;BME280;37287;47.554;7.844;2023-02-19T12:57:09;98916.69;;;9.90;84.35
50790;BME280;37287;47.554;7.844;2023-02-19T13:00:03;98916.16;;;9.84;85.31
50790;BME280;37287;47.554;7.844;2023-02-19T13:02:43;98928.88;;;9.84;85.55
50790;BME280;37287;47.554;7.844;2023-02-19T13:05:35;98926.66;;;9.73;85.68
50790;BME280;37287;47.554;7.844;2023-02-19T13:08:06;98915.72;;;9.70;86.41
50790;BME280;37287;47.554;7.844;2023-02-19T13:13:25;98913.44;;;9.56;86.95
50790;BME280;37287;47.554;7.844;2023-02-19T13:15:59;98906.66;;;9.62;87.75
50790;BME280;37287;47.554;7.844;2023-02-19T13:18:39;98887.50;;;9.67;87.79
50790;BME280;37287;47.554;7.844;2023-02-19T13:21:09;98891.28;;;9.78;88.02
50790;BME280;37287;47.554;7.844;2023-02-19T13:23:40;98882.53;;;9.85;87.40
50790;BME280;37287;47.554;7.844;2023-02-19T13:35:03;98897.69;;;10.02;86.76
50790;BME280;37287;47.554;7.844;2023-02-19T13:37:37;98896.38;;;9.96;87.49
50790;BME280;37287;47.554;7.844;2023-02-19T13:43:03;98885.72;;;9.87;87.03
50790;BME280;37287;47.554;7.844;2023-02-19T13:45:32;98885.78;;;9.91;86.58
50790;BME280;37287;47.554;7.844;2023-02-19T13:50:39;98909.16;;;9.83;84.52
50790;BME280;37287;47.554;7.844;2023-02-19T14:17:50;98885.75;;;10.19;81.94
50790;BME280;37287;47.554;7.844;2023-02-19T14:20:40;98884.97;;;10.19;81.68
50790;BME280;37287;47.554;7.844;2023-02-19T14:23:24;98878.16;;;10.25;81.34
50790;BME280;37287;47.554;7.844;2023-02-19T14:25:53;98880.59;;;10.30;80.35
50790;BME280;37287;47.554;7.844;2023-02-19T14:28:25;98877.69;;;10.35;79.30
50790;BME280;37287;47.554;7.844;2023-02-19T14:31:19;98877.19;;;10.33;78.38
50790;BME280;37287;47.554;7.844;2023-02-19T14:33:51;98875.84;;;10.39;78.70
50790;BME280;37287;47.554;7.844;2023-02-19T14:36:44;98869.97;;;10.37;79.15
50790;BME280;37287;47.554;7.844;2023-02-19T14:39:35;98868.84;;;10.38;78.79
50790;BME280;37287;47.554;7.844;2023-02-19T14:42:15;98876.53;;;10.36;77.47
50790;BME280;37287;47.554;7.844;2023-02-19T14:44:47;98867.28;;;10.37;77.76
50790;BME280;37287;47.554;7.844;2023-02-19T14:47:18;98860.91;;;10.45;78.04
50790;BME280;37287;47.554;7.844;2023-02-19T14:49:48;98867.91;;;10.46;78.27
50790;BME280;37287;47.554;7.844;2023-02-19T14:52:23;98871.63;;;10.42;77.67
50790;BME280;37287;47.554;7.844;2023-02-19T14:54:58;98863.78;;;10.37;76.61
50790;BME280;37287;47.554;7.844;2023-02-19T14:57:30;98859.25;;;10.41;78.14
50790;BME280;37287;47.554;7.844;2023-02-19T15:00:00;98868.31;;;10.32;77.70
50790;BME280;37287;47.554;7.844;2023-02-19T15:02:29;98876.94;;;10.22;77.62
50790;BME280;37287;47.554;7.844;2023-02-19T15:04:56;98877.28;;;10.21;78.45
50790;BME280;37287;47.554;7.844;2023-02-19T15:07:29;98884.97;;;10.19;79.55
50790;BME280;37287;47.554;7.844;2023-02-19T15:10:00;98887.03;;;10.09;78.11
50790;BME280;37287;47.554;7.844;2023-02-19T15:12:41;98884.78;;;10.11;78.55
50790;BME280;37287;47.554;7.844;2023-02-19T15:15:23;98894.38;;;10.09;77.98
50790;BME280;37287;47.554;7.844;2023-02-19T15:17:52;98894.19;;;10.02;75.65
50790;BME280;37287;47.554;7.844;2023-02-19T15:20:22;98897.94;;;9.97;75.28
50790;BME280;37287;47.554;7.844;2023-02-19T15:22:51;98902.56;;;9.96;75.50
50790;BME280;37287;47.554;7.844;2023-02-19T15:25:21;98902.00;;;9.91;75.01
50790;BME280;37287;47.554;7.844;2023-02-19T15:27:49;98902.91;;;9.95;75.66
50790;BME280;37287;47.554;7.844;2023-02-19T15:30:21;98914.06;;;9.93;76.45
50790;BME280;37287;47.554;7.844;2023-02-19T15:32:57;98916.69;;;9.90;75.81
50790;BME280;37287;47.554;7.844;2023-02-19T15:35:25;98915.19;;;9.92;75.63
50790;BME280;37287;47.554;7.844;2023-02-19T15:37:53;98916.78;;;9.93;75.69